Time;durP1;ratioP1;P1;durP2;ratioP2;P2;SDS_P1;SDS_P2;PMS_P1;PMS_P2;Temp;Humidity;BMP_temperature;BMP_pressure;BME280_temperature;BME280_humidity;BME280_pressure;Samples;Min_cycle;Max_cycle;Signal;HPM_P1;HPM_P2
2022/02/01 10:06:40;;;;;;;1.20;1.20;;;;;;;3.79;84.99;99153.38;5184586;27;21036;-88
2022/02/01 10:09:10;;;;;;;2.90;1.10;;;;;;;4.40;84.11;99151.44;5132346;27;39302;-85
2022/02/01 10:11:40;;;;;;;3.37;0.90;;;;;;;5.11;80.62;99166.47;5132392;27;41274;-87
2022/02/01 10:14:10;;;;;;;6.00;1.57;;;;;;;5.55;76.77;99182.41;5131851;27;42120;-84
2022/02/01 10:16:43;;;;;;;0.67;0.67;;;;;;;5.87;74.66;99179.41;5149645;27;41948;-84
2022/02/01 10:19:12;;;;;;;0.93;0.70;;;;;;;6.04;72.34;99177.03;5148838;27;39012;-82
2022/02/01 10:21:51;;;;;;;2.33;1.13;;;;;;;6.31;71.52;99168.94;5132296;27;40815;-87
2022/02/01 10:24:29;;;;;;;2.83;0.90;;;;;;;6.56;70.99;99145.97;5146012;27;43555;-85
2022/02/01 10:27:08;;;;;;;3.13;0.90;;;;;;;6.92;69.99;99151.47;5131979;27;41446;-86
2022/02/01 10:29:39;;;;;;;1.53;1.00;;;;;;;7.13;68.39;99155.81;5131402;27;39145;-83
2022/02/01 10:32:17;;;;;;;3.03;1.17;;;;;;;7.31;67.37;99154.13;5132048;27;41628;-85
2022/02/01 10:34:48;;;;;;;4.00;1.70;;;;;;;7.43;66.80;99152.72;5131476;27;41651;-86
2022/02/01 10:37:20;;;;;;;6.57;1.20;;;;;;;7.36;66.63;99130.22;5132059;27;42556;-86
2022/02/01 10:39:54;;;;;;;2.80;0.83;;;;;;;7.27;66.05;99149.94;5131875;27;38850;-86
2022/02/01 10:42:22;;;;;;;4.57;1.07;;;;;;;6.98;66.38;99127.50;5132411;27;40948;-85
2022/02/01 10:44:52;;;;;;;3.60;1.60;;;;;;;6.99;66.59;99125.72;5131140;27;42984;-89
2022/02/01 10:47:32;;;;;;;3.63;1.07;;;;;;;7.05;66.58;99143.88;5131720;27;41374;-89
2022/02/01 10:50:09;;;;;;;2.67;0.57;;;;;;;7.02;66.58;99131.72;5131132;27;38683;-86
2022/02/01 10:52:40;;;;;;;2.03;0.80;;;;;;;7.06;66.95;99137.69;5132238;27;40892;-87
2022/02/01 10:55:10;;;;;;;3.20;0.70;;;;;;;7.09;66.60;99127.88;5131754;27;41376;-85
2022/02/01 10:57:39;;;;;;;2.10;0.90;;;;;;;7.32;66.72;99124.22;5131318;27;40815;-83
2022/02/01 11:00:10;;;;;;;3.27;1.10;;;;;;;7.41;66.25;99113.28;5130931;27;38534;-89
2022/02/01 11:02:46;;;;;;;2.83;1.63;;;;;;;7.43;66.25;99085.06;5132276;27;40622;-86
2022/02/01 11:05:15;;;;;;;3.03;1.47;;;;;;;7.47;66.49;99101.59;5130532;27;41918;-86
2022/02/01 11:07:44;;;;;;;1.70;1.17;;;;;;;7.08;66.95;99014.72;5149333;27;41254;-85
2022/02/01 11:10:12;;;;;;;2.50;1.43;;;;;;;7.22;67.26;99028.97;5149277;27;40210;-85
2022/02/01 11:12:41;;;;;;;4.23;2.27;;;;;;;7.36;66.80;99030.97;5139990;27;41805;-86
2022/02/01 11:15:18;;;;;;;3.60;1.60;;;;;;;7.52;65.57;99021.41;5138405;27;41663;-85
2022/02/01 11:17:47;;;;;;;1.63;0.67;;;;;;;7.49;64.68;99021.56;5119107;27;40650;-87
2022/02/01 11:20:26;;;;;;;2.63;1.17;;;;;;;7.60;64.36;99033.38;5117519;27;38990;-83
2022/02/01 11:23:04;;;;;;;1.33;1.00;;;;;;;7.49;64.90;99011.00;5118688;27;40984;-87
2022/02/01 11:25:44;;;;;;;3.57;1.30;;;;;;;7.56;64.54;99009.78;5117037;27;42933;-85
2022/02/01 11:28:34;;;;;;;1.77;1.27;;;;;;;7.45;64.49;98993.63;5118330;27;41133;-86
2022/02/01 11:31:03;;;;;;;4.10;1.50;;;;;;;7.50;63.70;99023.28;5116669;27;38900;-84
2022/02/01 11:33:38;;;;;;;1.60;1.50;;;;;;;7.33;64.32;99015.28;5117928;27;40649;-83
2022/02/01 11:36:07;;;;;;;2.03;1.03;;;;;;;7.17;64.44;98978.28;5135151;27;42862;-84
2022/02/01 11:38:37;;;;;;;2.80;1.07;;;;;;;7.06;64.23;98991.09;5118016;27;41137;-85
2022/02/01 11:41:07;;;;;;;4.10;0.90;;;;;;;7.00;64.94;98958.94;5117456;27;39275;-85
2022/02/01 11:43:42;;;;;;;3.23;1.13;;;;;;;7.18;64.71;98982.63;5117744;27;40957;-83
2022/02/01 11:46:12;;;;;;;5.00;1.03;;;;;;;7.28;65.01;98959.34;5116402;27;42648;-83
2022/02/01 11:48:41;;;;;;;2.93;1.17;;;;;;;7.31;64.31;98980.25;5117327;27;41251;-85
2022/02/01 11:51:10;;;;;;;1.60;1.20;;;;;;;7.31;64.12;98964.44;5116261;27;39547;-85
2022/02/01 11:53:41;;;;;;;1.60;0.90;;;;;;;7.46;64.12;98969.00;5097241;28;40894;-83
2022/02/01 11:56:11;;;;;;;1.80;0.97;;;;;;;7.50;64.48;98960.03;5112653;28;41823;-84
2022/02/01 11:58:42;;;;;;;1.07;1.00;;;;;;;7.37;64.74;98939.63;5097268;28;41296;-86
2022/02/01 12:01:22;;;;;;;2.00;0.60;;;;;;;7.39;65.03;98929.84;5096815;28;40328;-85
2022/02/01 12:04:01;;;;;;;3.60;0.70;;;;;;;7.30;64.87;98925.00;5096636;27;41810;-87
2022/02/01 12:06:38;;;;;;;3.23;1.10;;;;;;;7.15;64.41;98937.16;5117119;27;41402;-87
2022/02/01 12:09:11;;;;;;;2.57;1.00;;;;;;;7.15;65.20;98923.97;5134050;27;42207;-87
2022/02/01 12:11:47;;;;;;;1.90;1.50;;;;;;;7.21;65.47;98927.16;5131478;27;41148;-84
2022/02/01 12:14:15;;;;;;;0.90;0.70;;;;;;;7.17;65.79;98899.25;5116369;27;41757;-87
2022/02/01 12:16:47;;;;;;;2.40;1.03;;;;;;;7.07;66.05;98886.59;5116464;27;41824;-87
2022/02/01 12:19:19;;;;;;;0.83;0.70;;;;;;;7.25;66.81;98895.41;5116351;27;42347;-87
2022/02/01 12:21:57;;;;;;;4.43;0.90;;;;;;;7.13;66.73;98876.66;5117474;27;39978;-87
2022/02/01 12:24:28;;;;;;;2.77;1.00;;;;;;;7.21;67.21;98869.22;5112639;28;41874;-86
2022/02/01 12:26:55;;;;;;;2.00;1.10;;;;;;;7.34;66.36;98873.88;5096599;28;42079;-87
2022/02/01 12:29:25;;;;;;;3.13;1.00;;;;;;;7.22;66.61;98852.50;5099699;27;41263;-85
2022/02/01 12:31:54;;;;;;;1.83;0.80;;;;;;;7.09;67.76;98842.63;5116869;27;40491;-86
2022/02/01 12:34:23;;;;;;;2.80;0.83;;;;;;;7.09;68.14;98832.09;5116383;27;41149;-90
2022/02/01 12:36:53;;;;;;;1.40;1.10;;;;;;;7.00;68.32;98832.56;5134017;27;41707;-83
2022/02/01 12:39:26;;;;;;;2.80;1.10;;;;;;;7.10;68.57;98834.66;5116127;27;41181;-83
2022/02/01 12:42:00;;;;;;;1.53;0.90;;;;;;;7.14;68.41;98823.06;5116883;27;38961;-84
2022/02/01 12:47:21;;;;;;;4.47;1.10;;;;;;;7.11;68.48;98801.28;5116647;27;42077;-84
2022/02/01 12:49:50;;;;;;;1.20;1.03;;;;;;;7.13;68.06;98817.88;5115513;27;41475;-84
2022/02/01 12:52:20;;;;;;;1.63;1.10;;;;;;;7.07;68.37;98802.34;5116462;27;39203;-87
2022/02/01 12:54:49;;;;;;;2.40;1.20;;;;;;;6.85;69.04;98774.44;5115598;27;41833;-85
2022/02/01 12:57:19;;;;;;;2.77;1.23;;;;;;;6.83;70.01;98767.53;5116227;27;41826;-85
2022/02/01 12:59:52;;;;;;;2.10;0.80;;;;;;;6.65;70.49;98753.53;5110937;27;41385;-86
2022/02/01 13:02:22;;;;;;;5.27;1.03;;;;;;;6.46;70.97;98744.78;5116199;27;39073;-85
2022/02/01 13:04:52;;;;;;;3.63;1.20;;;;;;;6.50;71.11;98751.63;5131305;27;41743;-85
2022/02/01 13:07:31;;;;;;;2.03;1.00;;;;;;;6.41;71.85;98745.03;5132758;27;42704;-84
2022/02/01 13:13:03;;;;;;;0.73;0.70;;;;;;;6.34;72.53;98726.97;5027888;27;39802;-84
2022/02/01 13:15:37;;;;;;;1.07;0.50;;;;;;;6.41;72.20;98725.75;5108283;27;42267;-84
2022/02/01 13:18:22;;;;;;;1.27;0.77;;;;;;;6.35;71.70;98718.16;5115737;27;42819;-86
2022/02/01 13:21:00;;;;;;;0.73;0.70;;;;;;;6.30;71.91;98721.00;5114646;27;42092;-81
2022/02/01 13:23:36;;;;;;;0.80;0.80;;;;;;;6.18;72.34;98704.97;5098780;27;39349;-84
2022/02/01 13:26:09;;;;;;;0.60;0.60;;;;;;;6.23;71.79;98711.69;5114314;27;41085;-86
2022/02/01 13:28:40;;;;;;;0.83;0.63;;;;;;;6.11;71.95;98686.84;5102564;28;41652;-87
2022/02/01 13:31:12;;;;;;;0.93;0.70;;;;;;;5.82;71.88;98666.28;5113578;27;41710;-84
2022/02/01 13:33:47;;;;;;;0.57;0.57;;;;;;;5.69;71.95;98629.19;5110624;28;38974;-84
2022/02/01 13:36:14;;;;;;;3.57;0.93;;;;;;;5.96;72.32;98684.06;5114409;27;41145;-84
2022/02/01 13:38:50;;;;;;;0.60;0.60;;;;;;;5.69;72.73;98642.34;5132477;27;41600;-86
2022/02/01 13:41:18;;;;;;;0.73;0.73;;;;;;;5.71;73.32;98643.13;5112878;27;40942;-86
2022/02/01 13:43:48;;;;;;;0.93;0.90;;;;;;;5.89;73.49;98677.41;5092420;28;38886;-86
2022/02/01 13:46:20;;;;;;;0.77;0.70;;;;;;;5.84;73.72;98651.28;5103955;27;42448;-87
2022/02/01 13:48:59;;;;;;;0.70;0.67;;;;;;;5.95;73.79;98656.94;5114974;27;43484;-85
2022/02/01 13:51:26;;;;;;;1.10;1.10;;;;;;;5.64;74.01;98583.94;5118683;27;41199;-83
2022/02/01 13:53:58;;;;;;;0.80;0.80;;;;;;;5.94;74.01;98622.81;5118781;27;39189;-86
2022/02/01 13:56:29;;;;;;;3.57;1.10;;;;;;;5.91;74.35;98628.25;5109779;27;41242;-85
2022/02/01 13:59:09;;;;;;;2.40;0.70;;;;;;;5.85;74.29;98594.34;5114167;27;41668;-87
2022/02/01 14:01:37;;;;;;;0.70;0.60;;;;;;;5.78;74.49;98586.75;5131979;27;42084;-91
2022/02/01 14:04:10;;;;;;;1.33;0.90;;;;;;;5.91;74.80;98583.56;5114511;27;38606;-87
2022/02/01 14:06:51;;;;;;;0.70;0.70;;;;;;;5.89;74.96;98577.53;5115149;27;40886;-79
2022/02/01 14:09:39;;;;;;;0.80;0.80;;;;;;;5.78;75.29;98580.66;5126547;27;42707;-84
2022/02/01 14:12:35;;;;;;;0.83;0.70;;;;;;;5.74;75.81;98571.19;5122450;27;43425;-89
2022/02/01 14:26:37;;;;;;;2.33;1.27;;;;;;;5.52;76.79;98581.03;5102735;27;39709;-86
2022/02/01 14:32:00;;;;;;;2.67;0.90;;;;;;;5.57;76.85;98556.22;5099007;27;42615;-88
2022/02/01 14:32:11;;;;;;;1.23;0.67;;;;;;;5.61;77.04;98562.19;5101379;27;41667;-91
2022/02/01 14:34:41;;;;;;;1.20;0.90;;;;;;;5.47;77.65;98533.94;5114067;27;41275;-87
2022/02/01 14:37:14;;;;;;;2.20;0.93;;;;;;;5.53;77.54;98522.31;5113168;27;39959;-83
2022/02/01 14:45:13;;;;;;;1.37;0.97;;;;;;;5.30;80.11;98511.13;5093545;27;41113;-86
2022/02/01 14:47:42;;;;;;;3.17;1.20;;;;;;;5.17;80.19;98485.53;5117221;27;41280;-84
2022/02/01 14:50:11;;;;;;;2.53;1.03;;;;;;;5.24;80.34;98490.41;5110880;27;42369;-86
2022/02/01 14:52:39;;;;;;;1.07;1.00;;;;;;;5.12;80.97;98472.59;5112426;27;43637;-86
2022/02/01 14:55:10;;;;;;;0.93;0.70;;;;;;;5.00;81.64;98486.28;5112918;27;41416;-82
2022/02/01 15:11:29;;;;;;;0.80;0.67;;;;;;;4.88;82.98;98471.97;5115886;27;41925;-83
2022/02/01 15:13:57;;;;;;;0.60;0.60;;;;;;;4.88;83.18;98465.84;5116392;27;43287;-84
2022/02/01 15:16:25;;;;;;;0.77;0.77;;;;;;;4.87;83.32;98464.16;5133954;27;42851;-84
2022/02/01 15:18:55;;;;;;;0.67;0.67;;;;;;;4.76;83.83;98461.16;5116679;27;40560;-85
2022/02/01 15:21:22;;;;;;;0.70;0.70;;;;;;;4.83;83.48;98462.59;5102329;27;41675;-83
2022/02/01 15:23:52;;;;;;;0.40;0.40;;;;;;;4.69;83.64;98440.47;5116665;27;41973;-86
2022/02/01 15:26:19;;;;;;;0.33;0.33;;;;;;;4.81;83.71;98453.97;5116519;27;42366;-85
2022/02/01 15:28:52;;;;;;;0.80;0.60;;;;;;;4.93;83.29;98461.25;5116426;27;42679;-87
2022/02/01 15:31:20;;;;;;;1.23;0.90;;;;;;;4.89;83.23;98436.09;5131570;27;42284;-87
2022/02/01 15:33:47;;;;;;;0.80;0.57;;;;;;;4.88;83.57;98426.50;5103762;27;43118;-88
2022/02/01 15:36:17;;;;;;;0.47;0.47;;;;;;;4.92;83.58;98431.56;5129911;27;41191;-84
2022/02/01 15:45:55;;;;;;;0.50;0.50;;;;;;;4.93;83.44;98427.16;5129351;27;41035;-83
2022/02/01 15:58:27;;;;;;;1.87;0.53;;;;;;;4.84;83.95;98391.69;5084446;28;42117;-83
2022/02/01 16:00:55;;;;;;;0.83;0.83;;;;;;;4.81;84.12;98389.22;5113204;27;38761;-85
2022/02/01 16:03:25;;;;;;;0.83;0.70;;;;;;;4.90;84.16;98380.91;5131048;27;42474;-84
2022/02/01 16:05:56;;;;;;;1.07;0.73;;;;;;;4.73;85.28;98372.13;5129784;27;43422;-86
2022/02/01 16:08:31;;;;;;;0.50;0.50;;;;;;;4.80;84.93;98378.81;5134535;27;42287;-84
2022/02/01 16:11:01;;;;;;;0.40;0.40;;;;;;;4.77;85.02;98371.91;5115612;27;38976;-86
2022/02/01 16:13:49;;;;;;;0.40;0.40;;;;;;;4.85;85.41;98382.03;5099207;27;42837;-87
2022/02/01 16:16:17;;;;;;;0.87;0.87;;;;;;;4.80;85.78;98368.31;5115352;27;41710;-85
2022/02/01 16:18:46;;;;;;;0.30;0.30;;;;;;;4.74;85.88;98358.09;5115954;27;42487;-86
2022/02/01 16:21:13;;;;;;;0.27;0.27;;;;;;;4.78;85.88;98359.66;5113608;27;39052;-86
2022/02/01 16:23:42;;;;;;;0.30;0.30;;;;;;;4.80;85.74;98357.81;5111075;28;40506;-86
2022/02/01 16:26:10;;;;;;;0.40;0.40;;;;;;;4.83;85.32;98353.25;5115047;27;44540;-87
2022/02/01 16:28:38;;;;;;;0.30;0.30;;;;;;;4.89;85.49;98360.00;5103921;28;42380;-86
2022/02/01 16:31:05;;;;;;;0.40;0.40;;;;;;;4.89;85.57;98352.13;5096319;28;39965;-84
2022/02/01 16:33:33;;;;;;;0.40;0.40;;;;;;;4.79;85.46;98343.84;5104679;28;40732;-85
2022/02/01 16:36:00;;;;;;;0.77;0.47;;;;;;;4.91;85.69;98366.03;5119040;27;41987;-85
2022/02/01 16:38:28;;;;;;;3.20;1.13;;;;;;;4.80;85.97;98363.06;5115290;27;41080;-85
2022/02/01 16:40:58;;;;;;;1.83;0.97;;;;;;;4.92;85.96;98372.97;5131328;27;39009;-85
2022/02/01 16:43:26;;;;;;;0.80;0.40;;;;;;;4.68;85.78;98339.13;5115319;27;40496;-87
2022/02/01 16:45:53;;;;;;;0.87;0.43;;;;;;;4.76;86.54;98343.13;5114841;27;41561;-86
2022/02/01 16:48:21;;;;;;;0.40;0.40;;;;;;;4.78;86.55;98341.28;5132548;27;41235;-85
2022/02/01 16:50:48;;;;;;;0.83;0.50;;;;;;;4.95;86.34;98367.56;5114822;27;40480;-81
2022/02/01 16:53:18;;;;;;;0.40;0.40;;;;;;;4.98;86.30;98367.41;5131953;27;41709;-85
2022/02/01 16:55:52;;;;;;;1.53;0.67;;;;;;;4.87;86.86;98352.19;5131376;27;41995;-86
2022/02/01 16:58:24;;;;;;;0.60;0.57;;;;;;;4.89;86.79;98347.72;5129375;27;42252;-86
2022/02/01 17:00:53;;;;;;;0.60;0.60;;;;;;;4.95;86.83;98354.44;5114606;27;38943;-85
